createdAt,value
2023-05-11T00:02:34.051Z,97867.00
2023-05-11T00:05:10.135Z,97877.00
2023-05-11T00:07:46.180Z,97873.00
2023-05-11T00:10:22.214Z,97866.00
2023-05-11T00:12:58.197Z,97853.00
2023-05-11T00:15:34.159Z,97852.00
2023-05-11T00:18:10.481Z,97860.00
2023-05-11T00:20:46.417Z,97863.00
2023-05-11T00:23:22.335Z,97856.00
2023-05-11T00:25:58.237Z,97858.00
2023-05-11T00:28:34.098Z,97854.00
2023-05-11T00:31:10.019Z,97859.00
2023-05-11T00:33:46.227Z,97859.00
2023-05-11T00:36:22.140Z,97855.00
2023-05-11T00:38:58.055Z,97852.00
2023-05-11T00:41:33.968Z,97855.00
2023-05-11T00:44:10.256Z,97850.00
2023-05-11T00:46:46.334Z,97856.00
2023-05-11T00:49:22.873Z,97861.00
2023-05-11T00:52:02.909Z,97855.00
2023-05-11T00:54:40.437Z,97853.00
2023-05-11T00:57:17.194Z,97851.00
2023-05-11T00:59:53.134Z,97853.00
2023-05-11T01:02:29.728Z,97849.00
2023-05-11T01:05:07.122Z,97848.00
2023-05-11T01:08:02.324Z,97862.00
2023-05-11T01:10:49.489Z,97851.00
2023-05-11T01:13:36.996Z,97856.00
2023-05-11T01:16:21.354Z,97865.00
2023-05-11T01:19:12.486Z,97855.00
2023-05-11T01:21:51.435Z,97864.00
2023-05-11T01:25:05.336Z,97857.00
2023-05-11T01:28:33.412Z,97848.00
2023-05-11T01:31:11.808Z,97856.00
2023-05-11T01:33:55.524Z,97848.00
2023-05-11T01:36:37.213Z,97847.00
2023-05-11T01:39:15.333Z,97844.00
2023-05-11T01:41:56.232Z,97847.00
2023-05-11T01:44:34.790Z,97855.00
2023-05-11T01:47:12.656Z,97848.00
2023-05-11T01:49:50.451Z,97846.00
2023-05-11T01:52:28.102Z,97850.00
2023-05-11T01:55:06.232Z,97849.00
2023-05-11T01:57:42.082Z,97847.00
2023-05-11T02:00:19.116Z,97845.00
2023-05-11T02:02:56.670Z,97847.00
2023-05-11T02:05:35.327Z,97845.00
2023-05-11T02:08:12.596Z,97845.00
2023-05-11T02:10:50.093Z,97848.00
2023-05-11T02:13:28.403Z,97842.00
2023-05-11T02:16:06.719Z,97851.00
2023-05-11T02:18:43.164Z,97853.00
2023-05-11T02:21:19.994Z,97857.00
2023-05-11T02:23:57.782Z,97861.00
2023-05-11T02:26:33.872Z,97856.00
2023-05-11T02:29:10.461Z,97855.00
2023-05-11T02:31:52.990Z,97851.00
2023-05-11T02:34:39.371Z,97857.00
2023-05-11T02:37:21.186Z,97851.00
2023-05-11T02:40:06.496Z,97855.00
2023-05-11T02:42:43.310Z,97856.00
2023-05-11T02:45:20.010Z,97854.00
2023-05-11T02:47:58.621Z,97860.00
2023-05-11T02:50:39.823Z,97857.00
2023-05-11T02:53:18.805Z,97851.00
2023-05-11T02:55:55.887Z,97854.00
2023-05-11T02:58:32.453Z,97849.00
2023-05-11T03:01:21.590Z,97855.00
2023-05-11T03:03:57.770Z,97847.00
2023-05-11T03:06:36.947Z,97847.00
2023-05-11T03:09:15.419Z,97849.00
2023-05-11T03:11:55.664Z,97844.00
2023-05-11T03:14:36.381Z,97844.00
2023-05-11T03:17:13.439Z,97841.00
2023-05-11T03:19:51.036Z,97843.00
2023-05-11T03:22:28.279Z,97835.00
2023-05-11T03:25:06.171Z,97840.00
2023-05-11T03:27:43.602Z,97836.00
2023-05-11T03:30:20.797Z,97834.00
2023-05-11T03:32:59.667Z,97833.00
2023-05-11T03:35:37.581Z,97836.00
2023-05-11T03:38:16.114Z,97829.00
2023-05-11T03:40:54.922Z,97837.00
2023-05-11T03:43:35.033Z,97829.00
2023-05-11T03:46:13.641Z,97833.00
2023-05-11T03:48:50.748Z,97836.00
2023-05-11T03:51:31.877Z,97825.00
2023-05-11T03:54:08.573Z,97830.00
2023-05-11T03:56:45.668Z,97833.00
2023-05-11T03:59:22.782Z,97826.00
2023-05-11T04:02:01.419Z,97822.00
2023-05-11T04:04:38.667Z,97826.00
2023-05-11T04:07:14.870Z,97835.00
2023-05-11T04:09:50.836Z,97822.00
2023-05-11T04:12:27.509Z,97823.00
2023-05-11T04:15:04.577Z,97824.00
2023-05-11T04:17:40.697Z,97823.00
2023-05-11T04:20:17.198Z,97823.00
2023-05-11T04:22:53.852Z,97833.00
2023-05-11T04:25:30.164Z,97826.00
2023-05-11T04:28:06.119Z,97823.00
2023-05-11T04:30:42.056Z,97827.00
2023-05-11T04:33:18.014Z,97827.00
2023-05-11T04:35:54.983Z,97826.00
2023-05-11T04:38:31.673Z,97824.00
2023-05-11T04:41:08.705Z,97823.00
2023-05-11T04:43:45.346Z,97829.00
2023-05-11T04:46:22.928Z,97823.00
2023-05-11T04:48:59.046Z,97831.00
2023-05-11T04:51:36.157Z,97825.00
2023-05-11T04:54:12.026Z,97824.00
2023-05-11T04:56:47.916Z,97824.00
2023-05-11T04:59:24.616Z,97828.00
2023-05-11T05:02:00.754Z,97834.00
2023-05-11T05:04:36.675Z,97837.00
2023-05-11T05:07:12.767Z,97833.00
2023-05-11T05:09:48.632Z,97831.00
2023-05-11T05:12:25.012Z,97839.00
2023-05-11T05:15:00.908Z,97836.00
2023-05-11T05:17:37.115Z,97832.00
2023-05-11T05:20:13.895Z,97829.00
2023-05-11T05:22:49.812Z,97834.00
2023-05-11T05:25:25.792Z,97842.00
2023-05-11T05:28:01.838Z,97847.00
2023-05-11T05:30:37.814Z,97844.00
2023-05-11T05:33:14.086Z,97841.00
2023-05-11T05:35:50.001Z,97842.00
2023-05-11T05:38:26.004Z,97846.00
2023-05-11T05:41:02.580Z,97843.00
2023-05-11T05:43:41.587Z,97847.00
2023-05-11T05:46:18.310Z,97849.00
2023-05-11T05:48:54.269Z,97850.00
2023-05-11T05:51:31.242Z,97855.00
2023-05-11T05:54:07.166Z,97851.00
2023-05-11T05:56:44.823Z,97858.00
2023-05-11T05:59:23.312Z,97853.00
2023-05-11T06:02:03.460Z,97867.00
2023-05-11T06:04:40.047Z,97860.00
2023-05-11T06:07:15.931Z,97865.00
2023-05-11T06:09:51.848Z,97856.00
2023-05-11T06:12:27.739Z,97851.00
2023-05-11T06:15:06.013Z,97855.00
2023-05-11T06:17:43.716Z,97863.00
2023-05-11T06:20:21.730Z,97859.00
2023-05-11T06:22:57.702Z,97862.00
2023-05-11T06:25:37.232Z,97861.00
2023-05-11T06:28:14.237Z,97861.00
2023-05-11T06:30:50.401Z,97860.00
2023-05-11T06:33:26.697Z,97856.00
2023-05-11T06:36:06.131Z,97865.00
2023-05-11T06:38:42.263Z,97859.00
2023-05-11T06:41:18.196Z,97859.00
2023-05-11T06:43:54.150Z,97857.00
2023-05-11T06:46:35.978Z,97870.00
2023-05-11T06:49:12.058Z,97874.00
2023-05-11T06:51:47.935Z,97864.00
2023-05-11T06:54:24.066Z,97865.00
2023-05-11T06:56:59.921Z,97861.00
2023-05-11T06:59:35.952Z,97871.00
2023-05-11T07:02:11.849Z,97867.00
2023-05-11T07:04:47.751Z,97863.00
2023-05-11T07:07:24.005Z,97865.00
2023-05-11T07:09:59.875Z,97867.00
2023-05-11T07:12:35.788Z,97872.00
2023-05-11T07:15:12.442Z,97869.00
2023-05-11T07:17:48.372Z,97873.00
2023-05-11T07:20:24.272Z,97878.00
2023-05-11T07:23:00.223Z,97876.00
2023-05-11T07:25:36.115Z,97875.00
2023-05-11T07:28:11.965Z,97876.00
2023-05-11T07:30:47.832Z,97880.00
2023-05-11T07:33:23.732Z,97874.00
2023-05-11T07:35:59.581Z,97880.00
2023-05-11T07:38:36.435Z,97879.00
2023-05-11T07:41:12.767Z,97880.00
2023-05-11T07:43:48.892Z,97872.00
2023-05-11T07:46:24.785Z,97883.00
2023-05-11T07:49:14.434Z,97878.00
2023-05-11T07:51:52.550Z,97880.00
2023-05-11T07:54:31.680Z,97883.00
2023-05-11T07:57:07.829Z,97893.00
2023-05-11T07:59:43.787Z,97885.00
2023-05-11T08:02:19.708Z,97883.00
2023-05-11T08:04:55.608Z,97882.00
2023-05-11T08:07:31.675Z,97879.00
2023-05-11T08:10:08.649Z,97881.00
2023-05-11T08:12:44.498Z,97877.00
2023-05-11T08:15:21.233Z,97884.00
2023-05-11T08:17:57.224Z,97885.00
2023-05-11T08:20:33.138Z,97875.00
2023-05-11T08:23:10.780Z,97881.00
2023-05-11T08:25:51.928Z,97882.00
2023-05-11T08:28:27.841Z,97881.00
2023-05-11T08:31:03.906Z,97884.00
2023-05-11T08:33:39.917Z,97879.00
2023-05-11T08:36:15.902Z,97881.00
2023-05-11T08:38:52.477Z,97884.00
2023-05-11T08:41:29.623Z,97878.00
2023-05-11T08:44:06.131Z,97883.00
2023-05-11T08:46:43.401Z,97882.00
2023-05-11T08:49:20.029Z,97878.00
2023-05-11T08:51:56.317Z,97884.00
2023-05-11T08:54:32.873Z,97886.00
2023-05-11T08:57:10.319Z,97879.00
2023-05-11T08:59:47.301Z,97885.00
2023-05-11T09:02:25.401Z,97885.00
2023-05-11T09:05:04.165Z,97886.00
2023-05-11T09:07:42.097Z,97879.00
2023-05-11T09:10:18.422Z,97883.00
2023-05-11T09:12:54.354Z,97881.00
2023-05-11T09:15:36.979Z,97888.00
2023-05-11T09:18:13.633Z,97893.00
2023-05-11T09:20:52.381Z,97888.00
2023-05-11T09:23:28.379Z,97874.00
2023-05-11T09:26:04.288Z,97886.00
2023-05-11T09:29:02.871Z,97886.00
2023-05-11T09:31:45.885Z,97885.00
2023-05-11T09:34:23.478Z,97878.00
2023-05-11T09:36:59.464Z,97886.00
2023-05-11T09:39:44.650Z,97888.00
2023-05-11T09:42:32.875Z,97886.00
2023-05-11T09:45:09.507Z,97886.00
2023-05-11T09:47:46.969Z,97883.00
2023-05-11T09:50:26.310Z,97878.00
2023-05-11T09:53:02.838Z,97873.00
2023-05-11T09:55:38.776Z,97880.00
2023-05-11T09:58:14.636Z,97878.00
2023-05-11T10:00:51.962Z,97886.00
2023-05-11T10:03:28.187Z,97881.00
2023-05-11T10:06:04.291Z,97882.00
2023-05-11T10:08:40.288Z,97881.00
2023-05-11T10:11:16.303Z,97883.00
2023-05-11T10:13:52.770Z,97883.00
2023-05-11T10:16:28.920Z,97883.00
2023-05-11T10:19:04.893Z,97884.00
2023-05-11T10:21:41.431Z,97886.00
2023-05-11T10:24:20.405Z,97881.00
2023-05-11T10:26:57.561Z,97880.00
2023-05-11T10:29:34.585Z,97877.00
2023-05-11T10:32:11.972Z,97879.00
2023-05-11T10:34:48.542Z,97875.00
2023-05-11T10:37:25.810Z,97871.00
2023-05-11T10:40:02.091Z,97874.00
2023-05-11T10:43:13.350Z,97880.00
2023-05-11T10:46:15.386Z,97876.00
2023-05-11T10:49:28.941Z,97872.00
2023-05-11T10:52:29.520Z,97865.00
2023-05-11T10:55:43.333Z,97870.00
2023-05-11T10:58:52.186Z,97858.00
2023-05-11T11:01:41.706Z,97865.00
2023-05-11T11:04:18.025Z,97865.00
2023-05-11T11:07:06.868Z,97858.00
2023-05-11T11:10:13.003Z,97864.00
2023-05-11T11:13:06.882Z,97863.00
2023-05-11T11:15:57.912Z,97859.00
2023-05-11T11:18:34.006Z,97862.00
2023-05-11T11:21:13.749Z,97855.00
2023-05-11T11:23:51.079Z,97860.00
2023-05-11T11:26:53.179Z,97862.00
2023-05-11T11:29:30.895Z,97860.00
2023-05-11T11:32:22.586Z,97860.00
2023-05-11T11:34:58.534Z,97858.00
2023-05-11T11:38:04.609Z,97866.00
2023-05-11T11:43:28.771Z,97852.00
2023-05-11T11:46:04.684Z,97844.00
2023-05-11T11:48:42.469Z,97860.00
2023-05-11T11:51:19.003Z,97851.00
2023-05-11T11:53:54.725Z,97854.00
2023-05-11T11:56:30.842Z,97850.00
2023-05-11T11:59:10.312Z,97859.00
2023-05-11T12:01:51.735Z,97856.00
2023-05-11T12:04:39.895Z,97861.00
2023-05-11T12:07:19.638Z,97850.00
2023-05-11T12:09:56.234Z,97857.00
2023-05-11T12:12:32.398Z,97847.00
2023-05-11T12:15:08.840Z,97844.00
2023-05-11T12:17:44.839Z,97845.00
2023-05-11T12:20:21.714Z,97842.00
2023-05-11T12:22:57.630Z,97845.00
2023-05-11T12:25:33.498Z,97842.00
2023-05-11T12:28:12.362Z,97844.00
2023-05-11T12:30:56.311Z,97856.00
2023-05-11T12:33:33.537Z,97839.00
2023-05-11T12:36:09.672Z,97833.00
2023-05-11T12:38:46.747Z,97837.00
2023-05-11T12:41:24.285Z,97831.00
2023-05-11T12:44:00.792Z,97839.00
2023-05-11T12:46:36.963Z,97830.00
2023-05-11T12:49:24.501Z,97833.00
2023-05-11T12:52:09.198Z,97833.00
2023-05-11T12:54:51.776Z,97828.00
2023-05-11T12:57:31.216Z,97821.00
2023-05-11T13:00:18.121Z,97820.00
2023-05-11T13:02:56.650Z,97824.00
2023-05-11T13:05:32.728Z,97818.00
2023-05-11T13:08:09.985Z,97812.00
2023-05-11T13:10:47.716Z,97812.00
2023-05-11T13:13:29.965Z,97804.00
2023-05-11T13:16:06.281Z,97807.00
2023-05-11T13:19:00.670Z,97808.00
2023-05-11T13:21:36.677Z,97802.00
2023-05-11T13:24:21.141Z,97791.00
2023-05-11T13:26:59.570Z,97794.00
2023-05-11T13:29:37.842Z,97784.00
2023-05-11T13:32:13.783Z,97789.00
2023-05-11T13:34:49.724Z,97796.00
2023-05-11T13:37:25.902Z,97788.00
2023-05-11T13:40:02.061Z,97793.00
2023-05-11T13:42:37.976Z,97786.00
2023-05-11T13:45:13.853Z,97781.00
2023-05-11T13:47:49.810Z,97781.00
2023-05-11T13:50:26.967Z,97777.00
2023-05-11T13:53:02.930Z,97775.00
2023-05-11T13:55:39.271Z,97774.00
2023-05-11T13:58:15.455Z,97768.00
2023-05-11T14:01:06.609Z,97762.00
2023-05-11T14:03:43.537Z,97767.00
2023-05-11T14:06:22.446Z,97768.00
2023-05-11T14:08:58.307Z,97757.00
2023-05-11T14:11:34.181Z,97755.00
2023-05-11T14:14:10.066Z,97756.00
2023-05-11T14:16:46.019Z,97759.00
2023-05-11T14:19:21.968Z,97761.00
2023-05-11T14:21:57.849Z,97759.00
2023-05-11T14:24:34.364Z,97761.00
2023-05-11T14:27:10.740Z,97755.00
2023-05-11T14:29:46.599Z,97753.00
2023-05-11T14:32:22.590Z,97753.00
2023-05-11T14:34:58.464Z,97755.00
2023-05-11T14:37:34.341Z,97756.00
2023-05-11T14:40:10.468Z,97753.00
2023-05-11T14:42:46.311Z,97754.00
2023-05-11T14:45:22.289Z,97751.00
2023-05-11T14:47:58.351Z,97742.00
2023-05-11T14:50:34.840Z,97737.00
2023-05-11T14:53:10.862Z,97733.00
2023-05-11T14:55:46.914Z,97735.00
2023-05-11T14:58:22.928Z,97736.00
2023-05-11T15:00:58.808Z,97729.00
2023-05-11T15:03:37.179Z,97739.00
2023-05-11T15:06:20.935Z,97732.00
2023-05-11T15:08:56.887Z,97729.00
2023-05-11T15:11:33.495Z,97729.00
2023-05-11T15:14:09.773Z,97730.00
2023-05-11T15:16:46.267Z,97736.00
2023-05-11T15:19:22.288Z,97739.00
2023-05-11T15:21:58.167Z,97733.00
2023-05-11T15:24:34.083Z,97738.00
2023-05-11T15:27:10.206Z,97735.00
2023-05-11T15:29:46.195Z,97737.00
2023-05-11T15:32:23.223Z,97741.00
2023-05-11T15:35:00.413Z,97743.00
2023-05-11T15:37:36.403Z,97737.00
2023-05-11T15:40:13.212Z,97741.00
2023-05-11T15:42:49.115Z,97734.00
2023-05-11T15:45:26.069Z,97728.00
2023-05-11T15:48:02.773Z,97735.00
2023-05-11T15:50:38.633Z,97740.00
2023-05-11T15:53:14.467Z,97740.00
2023-05-11T15:55:51.194Z,97737.00
2023-05-11T15:58:29.125Z,97747.00
2023-05-11T16:01:05.129Z,97751.00
2023-05-11T16:03:41.196Z,97746.00
2023-05-11T16:06:17.214Z,97750.00
2023-05-11T16:08:53.425Z,97740.00
2023-05-11T16:11:29.616Z,97739.00
2023-05-11T16:14:05.765Z,97739.00
2023-05-11T16:16:41.963Z,97743.00
2023-05-11T16:19:17.977Z,97746.00
2023-05-11T16:21:54.002Z,97739.00
2023-05-11T16:24:32.814Z,97744.00
2023-05-11T16:27:10.190Z,97745.00
2023-05-11T16:29:46.108Z,97741.00
2023-05-11T16:32:25.019Z,97746.00
2023-05-11T16:35:01.055Z,97740.00
2023-05-11T16:37:37.167Z,97740.00
2023-05-11T16:40:13.219Z,97743.00
2023-05-11T16:42:49.309Z,97743.00
2023-05-11T16:45:25.275Z,97740.00
2023-05-11T16:48:01.239Z,97736.00
2023-05-11T16:50:37.945Z,97739.00
2023-05-11T16:53:14.433Z,97734.00
2023-05-11T16:55:50.640Z,97739.00
2023-05-11T16:58:26.739Z,97736.00
2023-05-11T17:01:02.775Z,97737.00
2023-05-11T17:03:38.839Z,97742.00
2023-05-11T17:06:19.049Z,97743.00
2023-05-11T17:08:56.758Z,97750.00
2023-05-11T17:11:32.769Z,97743.00
2023-05-11T17:14:08.693Z,97740.00
2023-05-11T17:16:45.751Z,97744.00
2023-05-11T17:19:21.732Z,97745.00
2023-05-11T17:21:58.648Z,97744.00
2023-05-11T17:24:34.674Z,97745.00
2023-05-11T17:27:10.768Z,97741.00
2023-05-11T17:29:46.851Z,97743.00
2023-05-11T17:32:23.235Z,97744.00
2023-05-11T17:35:00.738Z,97742.00
2023-05-11T17:37:36.789Z,97745.00
2023-05-11T17:40:12.933Z,97743.00
2023-05-11T17:42:49.626Z,97743.00
2023-05-11T17:45:25.583Z,97746.00
2023-05-11T17:48:01.760Z,97746.00
2023-05-11T17:50:37.849Z,97744.00
2023-05-11T17:53:13.856Z,97747.00
2023-05-11T17:55:52.936Z,97737.00
2023-05-11T17:58:28.887Z,97743.00
2023-05-11T18:01:15.280Z,97743.00
2023-05-11T18:03:51.523Z,97743.00
2023-05-11T18:06:28.039Z,97746.00
2023-05-11T18:09:08.295Z,97744.00
2023-05-11T18:11:45.254Z,97739.00
2023-05-11T18:14:21.252Z,97746.00
2023-05-11T18:16:57.338Z,97744.00
2023-05-11T18:19:33.246Z,97757.00
2023-05-11T18:22:09.966Z,97756.00
2023-05-11T18:24:45.906Z,97751.00
2023-05-11T18:27:21.959Z,97757.00
2023-05-11T18:29:58.177Z,97752.00
2023-05-11T18:32:34.098Z,97758.00
2023-05-11T18:35:10.011Z,97765.00
2023-05-11T18:37:45.947Z,97762.00
2023-05-11T18:40:22.339Z,97761.00
2023-05-11T18:42:58.299Z,97771.00
2023-05-11T18:45:34.948Z,97770.00
2023-05-11T18:48:11.027Z,97776.00
2023-05-11T18:50:55.137Z,97771.00
2023-05-11T18:53:31.597Z,97779.00
2023-05-11T18:56:07.476Z,97774.00
2023-05-11T18:58:46.396Z,97775.00
2023-05-11T19:01:26.030Z,97769.00
2023-05-11T19:04:09.176Z,97776.00
2023-05-11T19:06:45.078Z,97780.00
2023-05-11T19:09:22.217Z,97791.00
2023-05-11T19:11:58.245Z,97783.00
2023-05-11T19:14:34.845Z,97782.00
2023-05-11T19:17:10.866Z,97784.00
2023-05-11T19:19:46.863Z,97784.00
2023-05-11T19:22:24.007Z,97785.00
2023-05-11T19:25:00.846Z,97779.00
2023-05-11T19:27:36.722Z,97785.00
2023-05-11T19:30:12.748Z,97788.00
2023-05-11T19:32:48.817Z,97792.00
2023-05-11T19:35:26.020Z,97786.00
2023-05-11T19:38:03.137Z,97787.00
2023-05-11T19:40:45.250Z,97789.00
2023-05-11T19:43:23.604Z,97797.00
2023-05-11T19:46:00.329Z,97792.00
2023-05-11T19:48:36.484Z,97800.00
2023-05-11T19:51:12.349Z,97797.00
2023-05-11T19:53:48.303Z,97800.00
2023-05-11T19:56:24.192Z,97808.00
2023-05-11T19:59:00.239Z,97813.00
2023-05-11T20:01:36.097Z,97809.00
2023-05-11T20:04:12.758Z,97806.00
2023-05-11T20:06:48.601Z,97799.00
2023-05-11T20:09:27.488Z,97806.00
2023-05-11T20:12:03.468Z,97809.00
2023-05-11T20:14:40.940Z,97800.00
2023-05-11T20:17:16.796Z,97799.00
2023-05-11T20:19:53.005Z,97800.00
2023-05-11T20:22:28.973Z,97799.00
2023-05-11T20:25:11.678Z,97792.00
2023-05-11T20:27:53.643Z,97801.00
2023-05-11T20:30:29.483Z,97805.00
2023-05-11T20:35:44.112Z,97796.00
2023-05-11T20:38:20.020Z,97796.00
2023-05-11T20:41:00.082Z,97786.00
2023-05-11T20:43:35.986Z,97800.00
2023-05-11T20:46:12.094Z,97791.00
2023-05-11T20:48:51.527Z,97794.00
2023-05-11T20:51:27.738Z,97795.00
2023-05-11T20:54:03.663Z,97798.00
2023-05-11T20:56:39.616Z,97799.00
2023-05-11T21:01:54.419Z,97800.00
2023-05-11T21:04:31.357Z,97794.00
2023-05-11T21:07:07.387Z,97788.00
2023-05-11T21:09:44.505Z,97794.00
2023-05-11T21:12:20.695Z,97785.00
2023-05-11T21:14:57.124Z,97789.00
2023-05-11T21:17:33.617Z,97796.00
2023-05-11T21:20:10.240Z,97792.00
2023-05-11T21:22:46.378Z,97795.00
2023-05-11T21:25:22.371Z,97797.00
2023-05-11T21:27:58.216Z,97792.00
2023-05-11T21:30:34.150Z,97790.00
2023-05-11T21:33:10.154Z,97791.00
2023-05-11T21:35:46.341Z,97793.00
2023-05-11T21:38:22.410Z,97797.00
2023-05-11T21:40:58.279Z,97801.00
2023-05-11T21:43:34.126Z,97800.00
2023-05-11T21:46:11.111Z,97796.00
2023-05-11T21:48:47.100Z,97801.00
2023-05-11T21:51:23.010Z,97796.00
2023-05-11T21:53:59.321Z,97793.00
2023-05-11T21:56:35.176Z,97792.00
2023-05-11T21:59:11.328Z,97794.00
2023-05-11T22:01:49.077Z,97797.00
2023-05-11T22:04:25.315Z,97803.00
2023-05-11T22:07:01.894Z,97793.00
2023-05-11T22:09:38.219Z,97790.00
2023-05-11T22:12:14.147Z,97792.00
2023-05-11T22:14:50.197Z,97795.00
2023-05-11T22:17:26.234Z,97786.00
2023-05-11T22:20:04.757Z,97789.00
2023-05-11T22:22:40.624Z,97791.00
2023-05-11T22:25:16.620Z,97790.00
2023-05-11T22:27:52.887Z,97794.00
2023-05-11T22:30:28.750Z,97793.00
2023-05-11T22:33:04.679Z,97794.00
2023-05-11T22:35:40.732Z,97784.00
2023-05-11T22:38:16.639Z,97784.00
2023-05-11T22:40:52.536Z,97802.00
2023-05-11T22:43:28.610Z,97797.00
2023-05-11T22:46:04.945Z,97799.00
2023-05-11T22:48:41.210Z,97795.00
2023-05-11T22:51:17.992Z,97801.00
2023-05-11T22:53:54.790Z,97796.00
2023-05-11T22:56:31.324Z,97799.00
2023-05-11T22:59:07.844Z,97796.00
2023-05-11T23:01:43.818Z,97799.00
2023-05-11T23:04:19.721Z,97800.00
2023-05-11T23:06:55.667Z,97800.00
2023-05-11T23:09:31.523Z,97809.00
2023-05-11T23:12:08.079Z,97799.00
2023-05-11T23:14:43.952Z,97793.00
2023-05-11T23:17:19.901Z,97791.00
2023-05-11T23:19:55.850Z,97798.00
2023-05-11T23:22:31.710Z,97796.00
2023-05-11T23:25:08.423Z,97798.00
2023-05-11T23:27:44.278Z,97796.00
2023-05-11T23:30:21.047Z,97782.00
2023-05-11T23:32:57.217Z,97796.00
2023-05-11T23:35:33.678Z,97788.00
2023-05-11T23:38:09.590Z,97798.00
2023-05-11T23:40:45.460Z,97790.00
2023-05-11T23:43:22.648Z,97784.00
2023-05-11T23:45:58.655Z,97777.00
2023-05-11T23:48:34.811Z,97784.00
2023-05-11T23:51:10.630Z,97774.00
2023-05-11T23:53:46.858Z,97780.00
2023-05-11T23:56:22.748Z,97776.00
2023-05-11T23:58:58.599Z,97771.00
